Time;durP1;ratioP1;P1;durP2;ratioP2;P2;SDS_P1;SDS_P2;PMS_P1;PMS_P2;Temp;Humidity;BMP_temperature;BMP_pressure;BME280_temperature;BME280_humidity;BME280_pressure;Samples;Min_cycle;Max_cycle;Signal;HPM_P1;HPM_P2
2024/01/16 00:00:14;;;;;;;3.90;2.75;;;1.00;99.90;;;0.70;80.80;100020.13;4837569;28;24428;-64
2024/01/16 00:02:36;;;;;;;2.55;2.40;;;1.00;99.90;;;0.69;81.04;100026.13;4820934;28;24452;-62
2024/01/16 00:04:58;;;;;;;2.70;2.50;;;1.00;99.90;;;0.71;80.92;100032.03;4829808;28;24494;-63
2024/01/16 00:07:20;;;;;;;3.13;2.60;;;1.00;99.90;;;0.72;80.79;100031.16;4835973;28;24470;-62
2024/01/16 00:09:42;;;;;;;2.75;2.55;;;1.00;99.90;;;0.70;81.12;100036.34;4824985;28;24484;-63
2024/01/16 00:12:05;;;;;;;2.90;2.70;;;1.00;99.90;;;0.66;80.80;100039.94;4822397;28;24463;-65
2024/01/16 00:14:27;;;;;;;4.20;2.40;;;1.00;99.90;;;0.65;80.99;100040.00;4831110;28;24572;-64
2024/01/16 00:16:49;;;;;;;3.58;2.90;;;0.90;99.90;;;0.60;81.13;100029.91;4824113;28;24814;-63
2024/01/16 00:19:12;;;;;;;3.42;2.70;;;0.90;99.90;;;0.50;81.66;100038.91;4822996;28;24523;-63
2024/01/16 00:21:41;;;;;;;3.35;2.47;;;0.90;99.90;;;0.46;81.53;100034.78;4806737;28;24432;-64
2024/01/16 00:24:04;;;;;;;2.72;2.53;;;0.80;99.90;;;0.47;81.43;100035.63;4831642;28;24440;-63
2024/01/16 00:26:26;;;;;;;3.50;2.70;;;0.80;99.90;;;0.44;81.72;100046.84;4829975;28;24548;-63
2024/01/16 00:28:48;;;;;;;3.10;2.78;;;0.70;99.90;;;0.40;81.97;100039.31;4818855;28;24516;-63
2024/01/16 00:31:10;;;;;;;4.60;3.00;;;0.70;99.90;;;0.40;82.01;100044.47;4827387;28;24528;-63
2024/01/16 00:33:31;;;;;;;3.10;2.90;;;0.70;99.90;;;0.38;82.25;100044.53;4837516;28;25038;-63
2024/01/16 00:35:53;;;;;;;2.97;2.70;;;0.70;99.90;;;0.40;82.37;100047.88;4823462;28;24437;-63
2024/01/16 00:38:15;;;;;;;4.45;1.85;;;0.70;99.90;;;0.38;82.58;100047.09;4829960;28;24451;-63
2024/01/16 00:40:37;;;;;;;3.07;2.70;;;0.70;99.90;;;0.41;82.08;100048.69;4836643;28;24493;-63
2024/01/16 00:42:59;;;;;;;4.07;3.30;;;0.70;99.90;;;0.40;82.43;100047.88;4834271;28;24917;-63
2024/01/16 00:45:22;;;;;;;3.30;3.00;;;0.70;99.90;;;0.40;82.90;100045.31;4830477;28;24539;-63
2024/01/16 00:47:44;;;;;;;5.20;3.28;;;0.70;99.90;;;0.41;82.77;100046.97;4833729;28;24436;-63
2024/01/16 00:50:06;;;;;;;3.60;3.30;;;0.70;99.90;;;0.48;82.56;100044.97;4835126;28;24432;-61
2024/01/16 00:52:28;;;;;;;2.80;2.60;;;0.70;99.90;;;0.51;82.34;100050.81;4827996;28;24499;-63
2024/01/16 00:54:50;;;;;;;3.85;2.80;;;0.80;99.90;;;0.50;82.24;100053.44;4833191;28;24440;-64
2024/01/16 00:57:13;;;;;;;2.67;2.58;;;0.80;99.90;;;0.49;81.99;100054.38;4819561;28;24436;-63
2024/01/16 00:59:36;;;;;;;3.30;3.00;;;0.80;99.90;;;0.49;82.01;100051.78;4834197;28;24447;-64
2024/01/16 01:01:58;;;;;;;3.42;3.10;;;0.80;99.90;;;0.51;82.23;100050.81;4830728;28;24982;-63
2024/01/16 01:04:20;;;;;;;3.10;2.90;;;0.80;99.90;;;0.53;82.29;100061.03;4827130;28;20789;-63
2024/01/16 01:06:42;;;;;;;4.63;3.40;;;0.80;99.90;;;0.50;82.19;100059.44;4821163;28;24472;-62
2024/01/16 01:09:04;;;;;;;3.47;2.92;;;0.80;99.90;;;0.52;82.13;100061.94;4832132;28;24532;-63
2024/01/16 01:11:26;;;;;;;4.78;3.60;;;0.80;99.90;;;0.50;82.16;100068.84;4829314;28;24444;-63
2024/01/16 01:13:48;;;;;;;4.45;3.28;;;0.80;99.90;;;0.47;82.39;100071.56;4828192;28;24908;-63
2024/01/16 01:16:10;;;;;;;4.30;3.00;;;0.80;99.90;;;0.47;82.42;100069.81;4831741;28;24538;-64
2024/01/16 01:18:32;;;;;;;5.50;3.30;;;0.80;99.90;;;0.50;82.39;100079.13;4826590;28;24524;-63
2024/01/16 01:20:54;;;;;;;4.55;3.33;;;0.70;99.90;;;0.47;82.47;100080.06;4836228;28;24483;-63
2024/01/16 01:23:16;;;;;;;5.10;3.20;;;0.70;99.90;;;0.46;82.35;100085.28;4825044;28;24537;-63
2024/01/16 01:25:38;;;;;;;3.28;2.90;;;0.70;99.90;;;0.46;82.69;100085.28;4829479;28;24474;-63
2024/01/16 01:28:00;;;;;;;3.25;3.00;;;0.70;99.90;;;0.49;82.29;100092.88;4829298;28;24437;-63
2024/01/16 01:30:22;;;;;;;3.05;2.85;;;0.80;99.90;;;0.47;82.31;100092.09;4822431;28;24986;-63
2024/01/16 01:32:44;;;;;;;3.38;3.03;;;0.70;99.90;;;0.45;82.39;100094.69;4821862;28;24507;-61
2024/01/16 01:35:06;;;;;;;3.10;2.80;;;0.70;99.90;;;0.46;82.35;100098.09;4818693;28;24545;-63
2024/01/16 01:37:28;;;;;;;4.50;3.00;;;0.70;99.90;;;0.47;82.00;100092.91;4833624;28;24428;-64
2024/01/16 01:39:52;;;;;;;3.33;3.03;;;0.80;99.90;;;0.37;82.26;100103.59;4825864;28;24495;-63
2024/01/16 01:42:15;;;;;;;4.72;3.15;;;0.70;99.90;;;0.29;82.39;100103.06;4836038;28;24728;-63
2024/01/16 01:44:37;;;;;;;3.70;2.92;;;0.60;99.90;;;0.25;82.67;100098.94;4822723;28;25026;-63
2024/01/16 01:47:00;;;;;;;4.28;3.38;;;0.60;99.90;;;0.20;82.98;100090.56;4829032;28;24549;-62
2024/01/16 01:49:22;;;;;;;5.50;3.00;;;0.50;99.90;;;0.18;83.27;100082.09;4833567;28;24512;-63
2024/01/16 01:51:44;;;;;;;3.70;3.03;;;0.50;99.90;;;0.15;82.92;100088.19;4833204;28;25039;-63
2024/01/16 01:54:07;;;;;;;3.42;2.97;;;0.50;99.90;;;0.15;83.31;100088.19;4827527;28;24486;-63
2024/01/16 01:56:29;;;;;;;3.80;3.05;;;0.50;99.90;;;0.11;83.51;100093.50;4818830;28;24544;-63
2024/01/16 01:59:01;;;;;;;4.30;3.13;;;0.40;99.90;;;0.14;83.22;100094.22;4828076;28;24499;-64
2024/01/16 02:01:25;;;;;;;4.00;3.30;;;0.50;99.90;;;0.15;83.41;100098.44;4825026;28;24472;-63
2024/01/16 02:03:50;;;;;;;4.18;3.00;;;0.50;99.90;;;0.17;83.54;100106.09;4828785;28;24488;-62
2024/01/16 02:06:13;;;;;;;4.80;2.97;;;0.40;99.90;;;0.16;83.63;100099.28;4830649;28;25226;-59
2024/01/16 02:08:35;;;;;;;3.40;3.10;;;0.50;99.90;;;0.20;83.64;100103.41;4825478;28;24487;-62
2024/01/16 02:10:57;;;;;;;4.95;3.60;;;0.50;99.90;;;0.25;83.75;100120.31;4816484;28;24436;-63
2024/01/16 02:13:23;;;;;;;5.13;3.72;;;0.50;99.90;;;0.30;83.87;100108.13;4830462;28;24459;-63
2024/01/16 02:15:45;;;;;;;3.60;3.30;;;0.50;99.90;;;0.37;83.72;100114.69;4830764;28;24451;-64
2024/01/16 02:18:07;;;;;;;4.40;3.50;;;0.60;99.90;;;0.46;83.51;100113.50;4833751;28;24511;-63
2024/01/16 02:20:29;;;;;;;4.50;3.13;;;0.60;99.90;;;0.49;83.22;100109.06;4824978;28;24548;-63
2024/01/16 02:22:54;;;;;;;5.20;3.73;;;0.70;99.90;;;0.54;83.04;100116.59;4816004;28;24429;-63
2024/01/16 02:25:17;;;;;;;4.38;3.75;;;0.70;99.90;;;0.57;83.02;100112.19;4829828;28;24547;-63
2024/01/16 02:27:38;;;;;;;4.10;3.70;;;0.80;99.90;;;0.60;82.79;100112.06;4829997;28;24433;-63
2024/01/16 02:30:00;;;;;;;3.88;3.47;;;0.80;99.90;;;0.58;82.47;100108.72;4824112;28;24930;-63
2024/01/16 02:32:22;;;;;;;4.90;3.20;;;0.80;99.90;;;0.60;82.37;100114.63;4830629;28;24452;-63
2024/01/16 02:34:44;;;;;;;5.03;3.50;;;0.80;99.90;;;0.60;82.24;100111.22;4831317;28;24539;-63
2024/01/16 02:37:06;;;;;;;5.35;3.58;;;0.80;99.90;;;0.58;82.57;100105.31;4829825;28;24479;-64
2024/01/16 02:39:28;;;;;;;4.50;3.47;;;0.80;99.90;;;0.55;82.49;100102.88;4834466;28;24805;-62
2024/01/16 02:41:50;;;;;;;4.35;3.70;;;0.80;99.90;;;0.53;82.49;100107.25;4831802;28;24463;-62
2024/01/16 02:44:12;;;;;;;4.00;3.60;;;0.80;99.90;;;0.51;82.65;100104.72;4828160;28;24504;-63
2024/01/16 02:46:34;;;;;;;6.00;3.72;;;0.80;99.90;;;0.49;82.91;100106.50;4822902;28;25052;-63
2024/01/16 02:48:56;;;;;;;3.60;3.30;;;0.70;99.90;;;0.51;82.76;100109.84;4831396;28;24428;-63
2024/01/16 02:51:18;;;;;;;4.60;3.70;;;0.80;99.90;;;0.49;83.02;100111.66;4832159;28;24452;-63
2024/01/16 02:53:40;;;;;;;5.13;3.40;;;0.70;99.90;;;0.54;83.17;100106.34;4830434;28;24823;-63
2024/01/16 02:56:02;;;;;;;4.25;3.50;;;0.80;99.90;;;0.57;82.69;100101.09;4828449;28;24451;-63
2024/01/16 02:58:29;;;;;;;6.18;3.70;;;0.80;99.90;;;0.59;82.36;100104.44;4834062;28;24480;-63
2024/01/16 03:00:50;;;;;;;6.30;3.70;;;0.80;99.90;;;0.60;82.35;100101.78;4820816;28;24452;-63
2024/01/16 03:03:14;;;;;;;4.75;3.70;;;0.80;99.90;;;0.59;82.41;100104.44;4834010;28;24615;-63
2024/01/16 03:05:36;;;;;;;6.32;3.63;;;0.80;99.90;;;0.55;82.16;100103.72;4834095;28;24535;-63
2024/01/16 03:07:58;;;;;;;4.50;3.45;;;0.80;99.90;;;0.54;82.29;100102.03;4832468;28;24490;-63
2024/01/16 03:10:21;;;;;;;4.32;3.70;;;0.80;99.90;;;0.57;82.21;100107.06;4834891;28;24548;-63
2024/01/16 03:12:43;;;;;;;5.93;3.70;;;0.80;99.90;;;0.56;82.04;100109.66;4830551;28;24512;-63
2024/01/16 03:15:05;;;;;;;5.57;3.80;;;0.80;99.90;;;0.52;82.04;100108.13;4832908;28;24510;-63
2024/01/16 03:17:27;;;;;;;4.40;3.10;;;0.80;99.90;;;0.48;82.08;100117.69;4816899;28;25325;-64
2024/01/16 03:19:49;;;;;;;6.13;3.53;;;0.80;99.90;;;0.45;82.35;100111.81;4822026;28;24506;-63
2024/01/16 03:22:11;;;;;;;9.13;3.90;;;0.80;99.90;;;0.44;82.35;100110.16;4819285;28;24484;-63
2024/01/16 03:24:33;;;;;;;5.03;3.40;;;0.70;99.90;;;0.31;82.69;100114.09;4826708;28;24834;-64
2024/01/16 03:26:55;;;;;;;5.03;3.88;;;0.70;99.90;;;0.32;83.36;100110.66;4820796;28;24429;-63
2024/01/16 03:29:17;;;;;;;4.10;3.70;;;0.60;99.90;;;0.32;83.35;100110.66;4820479;28;24519;-63
2024/01/16 03:31:39;;;;;;;4.10;3.70;;;0.60;99.90;;;0.29;83.61;100115.88;4837553;28;24547;-63
2024/01/16 03:34:01;;;;;;;4.30;3.90;;;0.60;99.90;;;0.29;83.54;100110.75;4837654;28;24522;-64
2024/01/16 03:36:23;;;;;;;4.20;3.80;;;0.60;99.90;;;0.31;83.29;100109.81;4822438;28;24510;-63
2024/01/16 03:38:45;;;;;;;4.22;3.65;;;0.60;99.90;;;0.35;83.10;100110.50;4835073;28;25074;-63
2024/01/16 03:41:07;;;;;;;3.80;3.10;;;0.60;99.90;;;0.37;83.24;100112.13;4826814;28;24819;-63
2024/01/16 03:43:30;;;;;;;4.13;3.53;;;0.60;99.90;;;0.39;83.06;100109.50;4834639;28;24431;-63
2024/01/16 03:45:52;;;;;;;4.13;3.50;;;0.70;99.90;;;0.34;82.92;100108.84;4809223;28;24862;-62
2024/01/16 03:48:14;;;;;;;6.65;4.20;;;0.70;99.90;;;0.31;83.32;100107.25;4827166;28;24499;-63
2024/01/16 03:50:36;;;;;;;5.70;4.00;;;0.60;99.90;;;0.31;83.55;100108.97;4825375;28;24456;-63
2024/01/16 03:52:58;;;;;;;6.22;3.60;;;0.60;99.90;;;0.30;83.38;100108.13;4819824;28;24452;-63
2024/01/16 03:55:20;;;;;;;4.20;3.65;;;0.60;99.90;;;0.35;83.50;100113.06;4819761;28;24445;-64
2024/01/16 03:57:42;;;;;;;5.43;4.00;;;0.60;99.90;;;0.35;83.12;100111.34;4832087;28;24519;-63
2024/01/16 04:00:05;;;;;;;5.43;4.03;;;0.60;99.90;;;0.37;83.50;100108.72;4819400;28;24532;-63
2024/01/16 04:02:27;;;;;;;5.30;3.50;;;0.60;99.90;;;0.39;83.66;100112.91;4834707;28;24520;-63
2024/01/16 04:04:49;;;;;;;5.65;3.70;;;0.60;99.90;;;0.40;83.50;100108.63;4837725;28;24444;-63
2024/01/16 04:07:11;;;;;;;4.15;3.75;;;0.60;99.90;;;0.41;83.07;100115.41;4829266;28;24433;-62
2024/01/16 04:09:33;;;;;;;4.97;3.67;;;0.70;99.90;;;0.45;83.31;100112.66;4838933;28;24443;-63
2024/01/16 04:11:55;;;;;;;3.70;3.28;;;0.70;99.90;;;0.47;83.08;100115.19;4834091;28;24458;-63
2024/01/16 04:14:17;;;;;;;3.63;3.33;;;0.70;99.90;;;0.44;83.01;100117.84;4827742;28;20870;-63
2024/01/16 04:16:40;;;;;;;4.95;3.70;;;0.70;99.90;;;0.38;83.13;100113.81;4827614;28;24448;-63
2024/01/16 04:19:02;;;;;;;5.25;3.90;;;0.70;99.90;;;0.38;83.21;100111.25;4836289;28;24519;-64
2024/01/16 04:21:25;;;;;;;3.40;3.10;;;0.70;99.90;;;0.34;83.43;100119.94;4831971;28;24444;-63
2024/01/16 04:23:47;;;;;;;4.03;3.63;;;0.60;99.90;;;0.32;83.57;100114.03;4835180;28;24456;-62
2024/01/16 04:26:09;;;;;;;5.05;3.63;;;0.60;99.90;;;0.28;83.74;100107.34;4825640;28;24448;-62
2024/01/16 04:28:31;;;;;;;4.40;3.40;;;0.60;99.90;;;0.28;83.94;100115.03;4823276;28;24444;-62
2024/01/16 04:30:53;;;;;;;4.10;3.60;;;0.60;99.90;;;0.26;83.66;100113.41;4822111;28;24435;-62
2024/01/16 04:33:15;;;;;;;4.37;3.50;;;0.50;99.90;;;0.23;83.86;100111.84;4826867;28;25012;-63
2024/01/16 04:35:37;;;;;;;3.78;3.38;;;0.50;99.90;;;0.24;83.76;100107.50;4818471;28;24429;-62
2024/01/16 04:37:59;;;;;;;6.40;3.90;;;0.50;99.90;;;0.22;83.73;100109.31;4807018;28;25050;-62
2024/01/16 04:40:21;;;;;;;4.38;3.40;;;0.50;99.90;;;0.23;83.72;100111.00;4828278;28;24515;-62
2024/01/16 04:42:44;;;;;;;4.55;3.45;;;0.50;99.90;;;0.20;84.21;100108.53;4830760;28;24444;-62
2024/01/16 04:45:06;;;;;;;6.80;3.70;;;0.50;99.90;;;0.12;84.16;100102.84;4824421;28;24491;-62
2024/01/16 04:47:28;;;;;;;4.85;3.40;;;0.40;99.90;;;0.14;84.20;100101.91;4827960;28;25234;-62
2024/01/16 04:49:50;;;;;;;5.82;3.97;;;0.50;99.90;;;0.08;84.21;100109.84;4835322;28;25227;-62
2024/01/16 04:52:12;;;;;;;5.40;3.80;;;0.40;99.90;;;0.04;84.25;100104.88;4829695;28;24498;-62
2024/01/16 04:54:34;;;;;;;5.40;3.50;;;0.40;99.90;;;-0.11;84.45;100109.66;4825192;28;24471;-63
2024/01/16 04:56:56;;;;;;;5.40;3.93;;;0.30;99.90;;;-0.19;85.21;100100.59;4830841;28;24547;-63
2024/01/16 04:59:18;;;;;;;6.25;3.15;;;0.20;99.90;;;-0.25;84.88;100101.66;4834393;28;24440;-62
2024/01/16 05:01:40;;;;;;;3.60;3.28;;;0.10;99.90;;;-0.23;84.90;100104.16;4826636;28;24428;-63
2024/01/16 05:04:03;;;;;;;5.35;3.80;;;0.10;99.90;;;-0.28;85.12;100094.06;4832132;28;24528;-63
2024/01/16 05:06:25;;;;;;;4.90;3.50;;;0.10;99.90;;;-0.29;85.31;100086.44;4818637;28;24471;-63
2024/01/16 05:08:48;;;;;;;4.50;3.53;;;0.00;99.90;;;-0.31;85.22;100083.94;4819251;28;24538;-63
2024/01/16 05:11:11;;;;;;;3.97;3.20;;;0.00;99.90;;;-0.36;85.00;100075.56;4820323;28;24470;-63
2024/01/16 05:13:33;;;;;;;4.60;3.40;;;0.00;99.90;;;-0.39;85.54;100070.56;4835753;28;24471;-63
2024/01/16 05:15:54;;;;;;;4.17;3.13;;;0.00;99.90;;;-0.43;85.97;100073.28;4831209;28;24635;-62
2024/01/16 05:18:16;;;;;;;3.88;3.13;;;-0.10;99.90;;;-0.51;86.18;100065.88;4827910;28;24503;-61
2024/01/16 05:20:39;;;;;;;5.50;3.50;;;-0.10;99.90;;;-0.53;86.72;100066.84;4829811;28;24453;-62
2024/01/16 05:23:01;;;;;;;4.90;3.60;;;-0.20;99.90;;;-0.53;86.24;100062.53;4824164;28;24926;-63
2024/01/16 05:25:23;;;;;;;4.68;2.90;;;-0.20;99.90;;;-0.53;86.26;100059.16;4819096;28;24492;-63
2024/01/16 05:27:45;;;;;;;3.00;2.63;;;-0.20;99.90;;;-0.62;86.72;100055.19;4834577;28;24480;-65
2024/01/16 05:30:07;;;;;;;8.18;3.45;;;-0.20;99.90;;;-0.63;86.84;100053.50;4827956;28;24512;-63
2024/01/16 05:32:30;;;;;;;5.53;4.00;;;-0.20;99.90;;;-0.56;86.39;100052.41;4830403;28;25367;-63
2024/01/16 05:34:52;;;;;;;5.70;4.00;;;-0.20;99.90;;;-0.56;86.32;100049.84;4835625;28;24495;-62
2024/01/16 05:37:14;;;;;;;5.60;4.22;;;-0.20;99.90;;;-0.56;86.45;100049.00;4820647;28;24520;-63
2024/01/16 05:39:36;;;;;;;8.13;4.45;;;-0.20;99.90;;;-0.57;86.78;100050.72;4833971;28;24956;-63
2024/01/16 05:41:59;;;;;;;7.85;4.70;;;-0.20;99.90;;;-0.58;85.94;100054.19;4828420;28;25012;-62
2024/01/16 05:44:21;;;;;;;4.60;3.70;;;-0.30;99.90;;;-0.64;86.70;100056.97;4834569;28;25061;-64
2024/01/16 05:46:43;;;;;;;7.35;4.43;;;-0.30;99.90;;;-0.66;86.25;100051.03;4835253;28;24448;-64
2024/01/16 05:49:05;;;;;;;5.90;4.57;;;-0.30;99.90;;;-0.63;86.10;100053.50;4827590;28;24978;-64
2024/01/16 05:51:29;;;;;;;8.30;4.93;;;-0.30;99.90;;;-0.64;86.26;100054.41;4825504;28;24567;-64
2024/01/16 05:53:52;;;;;;;6.60;4.50;;;-0.30;99.90;;;-0.63;86.21;100052.66;4829240;28;24463;-64
2024/01/16 05:56:14;;;;;;;8.52;4.60;;;-0.30;99.90;;;-0.65;86.04;100057.00;4815266;28;24436;-62
2024/01/16 05:58:38;;;;;;;7.70;4.38;;;-0.30;99.90;;;-0.66;86.05;100060.47;4832373;28;24433;-64
2024/01/16 06:01:00;;;;;;;6.85;4.00;;;-0.30;99.90;;;-0.67;86.30;100061.34;4827122;28;24432;-64
2024/01/16 06:03:22;;;;;;;6.75;4.13;;;-0.40;99.90;;;-0.74;86.71;100062.44;4826882;28;24439;-63
2024/01/16 06:05:44;;;;;;;6.95;4.47;;;-0.40;99.90;;;-0.79;86.74;100066.00;4817100;28;24457;-64
2024/01/16 06:08:06;;;;;;;7.30;4.10;;;-0.40;99.90;;;-0.81;87.13;100064.41;4818659;28;24440;-63
2024/01/16 06:10:28;;;;;;;7.38;3.80;;;-0.50;99.90;;;-0.80;86.82;100056.66;4825096;28;24474;-63
2024/01/16 06:12:50;;;;;;;6.05;4.20;;;-0.50;99.90;;;-0.80;86.78;100058.38;4832069;28;21167;-64
2024/01/16 06:15:12;;;;;;;4.90;3.83;;;-0.50;99.90;;;-0.81;86.71;100064.41;4828103;28;25119;-62
2024/01/16 06:17:34;;;;;;;5.90;3.90;;;-0.50;99.90;;;-0.78;86.85;100061.72;4828344;28;24596;-63
2024/01/16 06:19:56;;;;;;;5.18;3.70;;;-0.40;99.90;;;-0.80;86.63;100071.19;4829395;28;24865;-64
2024/01/16 06:22:18;;;;;;;4.85;3.70;;;-0.50;99.90;;;-0.82;86.87;100070.41;4826747;28;24436;-63
2024/01/16 06:24:40;;;;;;;6.85;3.90;;;-0.50;99.90;;;-0.84;87.15;100077.31;4822758;28;20831;-63
2024/01/16 06:27:06;;;;;;;5.57;3.55;;;-0.50;99.90;;;-0.84;87.03;100077.31;4821245;28;24539;-64
2024/01/16 06:29:28;;;;;;;4.32;3.75;;;-0.50;99.90;;;-0.84;86.81;100061.94;4824960;28;24472;-64
2024/01/16 06:31:56;;;;;;;6.60;3.90;;;-0.50;99.90;;;-0.82;86.97;100066.13;4823398;28;24514;-64
2024/01/16 06:34:18;;;;;;;5.13;3.70;;;-0.50;99.90;;;-0.79;87.29;100068.56;4817241;28;25069;-63
2024/01/16 06:36:40;;;;;;;5.05;3.92;;;-0.50;99.90;;;-0.76;87.24;100062.50;4827191;28;24516;-64
2024/01/16 06:39:03;;;;;;;5.65;3.60;;;-0.40;99.90;;;-0.76;87.24;100054.81;4832197;28;24425;-63
2024/01/16 06:41:25;;;;;;;6.00;3.80;;;-0.40;99.90;;;-0.75;86.69;100056.50;4834070;28;25067;-62
2024/01/16 06:43:47;;;;;;;4.82;3.67;;;-0.40;99.90;;;-0.73;86.74;100053.88;4823215;28;24437;-63
2024/01/16 06:46:09;;;;;;;4.00;3.60;;;-0.40;99.90;;;-0.72;86.99;100060.69;4826947;28;24476;-62
2024/01/16 06:48:31;;;;;;;5.20;3.53;;;-0.40;99.90;;;-0.69;86.77;100046.03;4830014;28;24834;-62
2024/01/16 06:50:53;;;;;;;6.25;3.75;;;-0.40;99.90;;;-0.67;86.39;100053.66;4828924;28;24452;-63
2024/01/16 06:53:15;;;;;;;3.70;3.20;;;-0.40;99.90;;;-0.64;86.66;100051.84;4830850;28;24567;-64
2024/01/16 06:55:38;;;;;;;4.28;3.40;;;-0.30;99.90;;;-0.68;86.37;100057.13;4818755;28;24538;-62
2024/01/16 06:58:00;;;;;;;4.70;3.10;;;-0.30;99.90;;;-0.65;86.62;100057.84;4831427;28;24531;-64
2024/01/16 07:00:22;;;;;;;4.35;3.00;;;-0.30;99.90;;;-0.64;86.55;100058.69;4816860;28;25030;-64
2024/01/16 07:02:44;;;;;;;7.25;3.35;;;-0.30;99.90;;;-0.72;86.90;100056.38;4819426;28;24481;-62
2024/01/16 07:05:07;;;;;;;4.03;3.00;;;-0.40;99.90;;;-0.67;86.64;100062.19;4831129;28;25011;-64
2024/01/16 07:07:30;;;;;;;5.70;3.40;;;-0.40;99.90;;;-0.67;86.70;100057.06;4827397;28;24535;-64
2024/01/16 07:09:52;;;;;;;5.82;4.03;;;-0.40;99.90;;;-0.67;86.58;100057.06;4829674;28;25079;-63
2024/01/16 07:12:14;;;;;;;5.47;3.58;;;-0.30;99.90;;;-0.67;87.23;100059.63;4831764;28;24544;-63
2024/01/16 07:14:37;;;;;;;7.72;3.83;;;-0.30;99.90;;;-0.69;87.00;100058.00;4833001;28;24547;-64
2024/01/16 07:17:00;;;;;;;5.90;4.07;;;-0.30;99.90;;;-0.71;86.88;100062.34;4833399;28;24444;-64
2024/01/16 07:19:21;;;;;;;9.98;4.93;;;-0.40;99.90;;;-0.68;86.98;100057.94;4833393;28;24490;-64
2024/01/16 07:21:44;;;;;;;6.53;4.53;;;-0.30;99.90;;;-0.64;86.58;100058.69;4826285;28;24456;-63
2024/01/16 07:24:07;;;;;;;9.00;3.70;;;-0.30;99.90;;;-0.68;86.53;100065.63;4833933;28;24479;-63
2024/01/16 07:26:29;;;;;;;7.10;4.20;;;-0.30;99.90;;;-0.64;86.88;100064.66;4826458;28;24535;-63
2024/01/16 07:28:51;;;;;;;6.20;4.28;;;-0.30;99.90;;;-0.65;86.62;100062.97;4830831;28;24456;-63
2024/01/16 07:31:16;;;;;;;7.57;4.60;;;-0.30;99.90;;;-0.66;86.70;100061.28;4824973;28;24437;-64
2024/01/16 07:33:38;;;;;;;6.65;4.22;;;-0.30;99.90;;;-0.61;87.00;100059.41;4811485;28;24481;-64
2024/01/16 07:36:00;;;;;;;7.60;3.72;;;-0.30;99.90;;;-0.65;87.66;100055.28;4826653;28;24958;-65
2024/01/16 07:38:22;;;;;;;5.10;3.87;;;-0.30;99.90;;;-0.63;86.47;100060.34;4825201;28;24432;-64
2024/01/16 07:40:44;;;;;;;5.97;4.30;;;-0.30;99.90;;;-0.64;87.01;100064.66;4831604;28;24510;-64
2024/01/16 07:43:06;;;;;;;7.97;3.80;;;-0.30;99.90;;;-0.60;86.77;100061.09;4823458;28;24866;-64
2024/01/16 07:45:28;;;;;;;6.25;3.78;;;-0.30;99.90;;;-0.63;87.23;100062.91;4829511;28;24487;-63
2024/01/16 07:47:50;;;;;;;5.25;3.70;;;-0.30;99.90;;;-0.54;86.79;100065.16;4828140;28;24443;-64
2024/01/16 07:50:12;;;;;;;5.45;3.35;;;-0.30;99.90;;;-0.53;86.73;100067.66;4816278;28;25052;-63
2024/01/16 07:52:34;;;;;;;4.78;3.65;;;-0.20;99.90;;;-0.53;86.44;100067.66;4833414;28;24443;-64
2024/01/16 07:54:56;;;;;;;4.95;3.30;;;-0.20;99.90;;;-0.52;86.32;100069.34;4833549;28;25113;-64
2024/01/16 07:57:18;;;;;;;3.90;3.50;;;-0.20;99.90;;;-0.48;86.06;100070.06;4818598;28;20855;-63
2024/01/16 07:59:43;;;;;;;6.90;4.15;;;-0.20;99.90;;;-0.46;86.19;100071.66;4825133;28;24448;-64
2024/01/16 08:02:05;;;;;;;7.63;4.30;;;-0.20;99.90;;;-0.36;86.27;100078.13;4817883;28;24437;-64
2024/01/16 08:04:27;;;;;;;7.20;4.47;;;-0.10;99.90;;;-0.28;86.12;100078.69;4831166;28;24475;-63
2024/01/16 08:06:49;;;;;;;6.55;4.40;;;-0.10;99.90;;;-0.22;85.88;100073.34;4825777;28;24524;-63
2024/01/16 08:09:12;;;;;;;8.30;4.50;;;0.00;99.90;;;-0.21;85.11;100069.88;4830349;28;25077;-63
2024/01/16 08:11:36;;;;;;;8.48;4.38;;;0.00;99.90;;;-0.15;84.82;100068.84;4825476;28;24440;-61
2024/01/16 08:13:58;;;;;;;5.95;3.90;;;0.10;99.90;;;-0.08;85.01;100080.53;4827030;28;24842;-62
2024/01/16 08:16:20;;;;;;;5.95;3.80;;;0.10;99.90;;;-0.04;84.58;100080.34;4836378;28;24452;-63
2024/01/16 08:18:42;;;;;;;6.32;4.50;;;0.20;99.90;;;-0.02;84.58;100081.13;4833481;28;24831;-63
2024/01/16 08:21:05;;;;;;;6.82;4.20;;;0.20;99.90;;;0.06;84.16;100090.28;4830708;28;24441;-63
2024/01/16 08:23:27;;;;;;;5.25;3.50;;;0.30;99.90;;;0.11;83.25;100088.38;4833084;28;24488;-63
2024/01/16 08:25:51;;;;;;;7.55;3.88;;;0.30;99.90;;;0.07;83.67;100086.78;4831486;28;24907;-63
2024/01/16 08:28:14;;;;;;;3.50;3.20;;;0.30;99.90;;;0.02;83.84;100087.00;4832372;28;24489;-63
2024/01/16 08:30:36;;;;;;;4.15;3.10;;;0.30;99.90;;;0.06;83.73;100091.13;4835019;28;24498;-63
2024/01/16 08:32:58;;;;;;;5.18;3.85;;;0.30;99.90;;;0.09;83.76;100087.56;4824702;28;20799;-63
2024/01/16 08:35:20;;;;;;;5.47;3.47;;;0.40;99.90;;;0.16;83.48;100096.72;4829588;28;24522;-62
2024/01/16 08:37:42;;;;;;;7.35;4.20;;;0.40;99.90;;;0.23;83.03;100101.56;4820928;28;24468;-63
2024/01/16 08:40:05;;;;;;;6.20;3.75;;;0.50;99.90;;;0.30;82.45;100109.88;4829670;28;25335;-64
2024/01/16 08:42:27;;;;;;;5.88;3.85;;;0.50;99.90;;;0.31;82.79;100114.09;4834379;28;25056;-63
2024/01/16 08:44:49;;;;;;;7.00;4.30;;;0.60;99.90;;;0.38;82.55;100121.50;4833864;28;25087;-62
2024/01/16 08:47:11;;;;;;;8.35;4.50;;;0.60;99.90;;;0.22;82.75;100119.56;4829389;28;25109;-64
2024/01/16 08:49:33;;;;;;;6.95;4.45;;;0.50;99.90;;;0.27;83.00;100127.94;4826868;28;25061;-63
2024/01/16 08:51:55;;;;;;;7.32;4.30;;;0.50;99.90;;;0.37;82.66;100127.53;4831963;28;25084;-64
2024/01/16 08:54:17;;;;;;;8.35;4.60;;;0.50;99.90;;;0.53;82.29;100132.91;4835802;28;24870;-63
2024/01/16 08:56:39;;;;;;;4.22;3.35;;;0.70;99.90;;;0.63;81.65;100131.66;4837129;28;24436;-63
2024/01/16 08:59:01;;;;;;;8.67;4.57;;;0.80;99.90;;;0.76;81.10;100122.56;4831028;28;25065;-64
2024/01/16 09:01:23;;;;;;;7.15;4.10;;;0.90;99.90;;;0.93;79.87;100127.03;4825983;28;25040;-62
2024/01/16 09:03:46;;;;;;;7.82;4.25;;;1.10;99.90;;;1.00;79.83;100128.44;4831770;28;24539;-64
2024/01/16 09:06:08;;;;;;;5.03;3.90;;;1.10;99.90;;;1.10;79.42;100135.72;4834004;28;24448;-63
2024/01/16 09:08:31;;;;;;;6.35;3.40;;;1.20;99.90;;;1.14;78.62;100133.84;4833295;28;24499;-63
2024/01/16 09:10:54;;;;;;;5.80;4.00;;;1.30;99.90;;;1.16;78.84;100137.19;4829248;28;24522;-64
2024/01/16 09:13:16;;;;;;;7.63;4.35;;;1.30;99.90;;;1.19;78.44;100145.59;4833886;28;24544;-64
2024/01/16 09:15:38;;;;;;;7.25;3.80;;;1.30;99.90;;;1.29;78.09;100136.63;4830930;28;24548;-63
2024/01/16 09:18:00;;;;;;;5.20;3.30;;;1.40;99.90;;;1.05;79.00;100135.06;4829862;28;24854;-63
2024/01/16 09:20:23;;;;;;;6.32;3.88;;;1.30;99.90;;;1.08;79.36;100134.94;4832998;28;24624;-63
2024/01/16 09:22:45;;;;;;;5.20;3.75;;;1.30;99.90;;;1.08;79.22;100145.22;4836107;28;24428;-61
2024/01/16 09:25:07;;;;;;;4.45;3.15;;;1.30;99.90;;;1.09;79.38;100143.47;4831430;28;25013;-64
2024/01/16 09:27:29;;;;;;;6.22;3.30;;;1.20;99.90;;;1.05;79.19;100144.50;4832789;28;24547;-63
2024/01/16 09:29:51;;;;;;;6.78;3.92;;;1.20;99.90;;;1.02;79.44;100140.34;4833664;28;24559;-63
2024/01/16 09:32:13;;;;;;;5.07;3.90;;;1.20;99.90;;;0.94;79.58;100137.22;4831006;28;24538;-61
2024/01/16 09:34:35;;;;;;;8.68;3.67;;;1.20;99.90;;;0.84;79.51;100138.50;4826734;28;24456;-63
2024/01/16 09:37:00;;;;;;;6.47;3.88;;;1.10;99.90;;;0.86;79.45;100134.13;4832851;28;24466;-64
2024/01/16 09:39:22;;;;;;;6.65;3.83;;;1.10;99.90;;;0.89;79.54;100134.03;4833208;28;24444;-64
2024/01/16 09:41:45;;;;;;;3.45;2.92;;;1.10;99.90;;;0.91;79.39;100131.38;4813161;28;24432;-65
2024/01/16 09:44:07;;;;;;;5.75;3.50;;;1.10;99.90;;;0.89;79.98;100117.78;4825120;28;24815;-65
2024/01/16 09:46:31;;;;;;;3.20;2.90;;;1.10;99.90;;;0.86;79.50;100123.88;4833761;28;24993;-65
2024/01/16 09:48:56;;;;;;;5.57;4.25;;;1.10;99.90;;;0.92;79.77;100123.59;4824761;28;24741;-65
2024/01/16 09:51:18;;;;;;;7.00;3.67;;;1.10;99.90;;;0.89;79.64;100118.63;4809138;28;24883;-65
2024/01/16 09:53:43;;;;;;;7.00;4.45;;;1.10;99.90;;;0.95;79.40;100123.50;4820390;28;24523;-65
2024/01/16 09:56:14;;;;;;;7.68;4.60;;;1.10;99.90;;;0.96;79.91;100121.78;4828816;28;24456;-65
2024/01/16 09:58:37;;;;;;;6.68;4.20;;;1.20;99.90;;;1.11;79.80;100126.28;4831285;28;24894;-65
2024/01/16 10:00:59;;;;;;;4.50;3.80;;;1.30;99.90;;;1.19;79.07;100127.59;4829025;28;24953;-67